createdAt,value
2022-11-29T00:02:12.603Z,88.23
2022-11-29T00:04:45.946Z,88.28
2022-11-29T00:07:15.133Z,88.25
2022-11-29T00:09:43.753Z,88.21
2022-11-29T00:12:12.629Z,88.27
2022-11-29T00:14:44.196Z,88.33
2022-11-29T00:17:15.806Z,88.33
2022-11-29T00:19:44.789Z,88.23
2022-11-29T00:22:14.366Z,88.30
2022-11-29T00:24:43.699Z,88.26
2022-11-29T00:27:12.755Z,88.32
2022-11-29T00:29:43.231Z,88.19
2022-11-29T00:32:14.136Z,88.26
2022-11-29T00:34:44.358Z,88.30
2022-11-29T00:37:16.305Z,88.25
2022-11-29T00:39:45.957Z,88.18
2022-11-29T00:42:15.091Z,88.27
2022-11-29T00:44:43.837Z,88.19
2022-11-29T00:47:17.811Z,88.16
2022-11-29T00:49:47.566Z,88.21
2022-11-29T00:52:19.288Z,88.18
2022-11-29T00:54:48.123Z,87.99
2022-11-29T00:57:16.965Z,88.17
2022-11-29T00:59:48.252Z,88.11
2022-11-29T01:02:19.132Z,88.17
2022-11-29T01:04:47.984Z,88.14
2022-11-29T01:07:17.019Z,88.10
2022-11-29T01:09:45.697Z,88.18
2022-11-29T01:12:14.291Z,88.14
2022-11-29T01:14:46.375Z,88.29
2022-11-29T01:17:18.003Z,88.24
2022-11-29T01:19:50.773Z,88.19
2022-11-29T01:22:20.183Z,88.18
2022-11-29T01:24:51.418Z,88.14
2022-11-29T01:30:25.791Z,88.18
2022-11-29T01:32:57.709Z,88.13
2022-11-29T01:35:31.255Z,88.11
2022-11-29T01:37:59.893Z,88.02
2022-11-29T01:40:28.832Z,88.07
2022-11-29T01:42:58.807Z,88.00
2022-11-29T01:45:27.619Z,88.10
2022-11-29T01:48:02.119Z,88.11
2022-11-29T01:50:31.030Z,88.06
2022-11-29T01:53:01.872Z,88.10
2022-11-29T01:58:36.603Z,88.03
2022-11-29T02:01:07.817Z,88.13
2022-11-29T02:03:41.292Z,88.10
2022-11-29T02:06:10.781Z,88.08
2022-11-29T02:08:42.978Z,88.09
2022-11-29T02:11:42.378Z,88.11
2022-11-29T02:14:29.467Z,88.10
2022-11-29T02:17:10.228Z,88.00
2022-11-29T02:20:11.473Z,88.06
2022-11-29T02:22:48.418Z,88.16
2022-11-29T02:25:35.916Z,88.10
2022-11-29T02:28:46.445Z,88.17
2022-11-29T02:31:39.221Z,88.18
2022-11-29T02:34:28.276Z,88.23
2022-11-29T02:37:20.609Z,88.26
2022-11-29T02:40:43.842Z,88.17
2022-11-29T02:43:30.231Z,88.29
2022-11-29T02:46:13.274Z,88.36
2022-11-29T02:48:53.180Z,88.34
2022-11-29T02:51:31.015Z,88.28
2022-11-29T02:54:06.470Z,88.30
2022-11-29T02:56:43.233Z,88.21
2022-11-29T02:59:26.733Z,88.26
2022-11-29T03:02:05.336Z,88.27
2022-11-29T03:04:43.745Z,88.30
2022-11-29T03:07:21.868Z,88.34
2022-11-29T03:10:02.234Z,88.23
2022-11-29T03:12:42.365Z,88.25
2022-11-29T03:15:22.527Z,88.25
2022-11-29T03:18:03.758Z,88.28
2022-11-29T03:20:48.490Z,88.27
2022-11-29T03:23:25.352Z,88.19
2022-11-29T03:26:01.297Z,88.24
2022-11-29T03:28:34.194Z,88.24
2022-11-29T03:31:10.429Z,88.22
2022-11-29T03:33:50.524Z,88.25
2022-11-29T03:36:29.199Z,88.24
2022-11-29T03:39:04.706Z,88.20
2022-11-29T03:41:41.372Z,88.20
2022-11-29T03:44:18.023Z,88.27
2022-11-29T03:46:54.309Z,88.17
2022-11-29T03:49:26.958Z,88.26
2022-11-29T03:52:10.004Z,88.26
2022-11-29T03:54:53.338Z,88.20
2022-11-29T03:57:31.325Z,88.24
2022-11-29T04:00:05.526Z,88.22
2022-11-29T04:03:14.836Z,88.17
2022-11-29T04:06:15.737Z,88.12
2022-11-29T04:09:10.818Z,88.16
2022-11-29T04:12:04.411Z,88.12
2022-11-29T04:18:33.942Z,88.16
2022-11-29T04:21:26.534Z,88.24
2022-11-29T04:24:31.575Z,88.24
2022-11-29T04:27:27.854Z,88.24
2022-11-29T04:30:12.923Z,88.19
2022-11-29T04:33:16.805Z,88.22
2022-11-29T04:36:10.158Z,88.16
2022-11-29T04:38:59.520Z,88.20
2022-11-29T04:41:53.648Z,88.25
2022-11-29T04:44:53.621Z,88.21
2022-11-29T04:47:48.398Z,88.17
2022-11-29T04:50:38.324Z,88.22
2022-11-29T04:53:34.952Z,88.18
2022-11-29T04:56:15.679Z,88.27
2022-11-29T04:58:53.168Z,88.24
2022-11-29T05:01:38.636Z,88.21
2022-11-29T05:04:17.258Z,88.17
2022-11-29T05:06:58.345Z,88.12
2022-11-29T05:09:36.551Z,88.20
2022-11-29T05:12:12.844Z,88.15
2022-11-29T05:14:56.552Z,88.18
2022-11-29T05:17:43.054Z,88.22
2022-11-29T05:20:26.160Z,88.13
2022-11-29T05:23:12.095Z,88.18
2022-11-29T05:25:50.651Z,88.19
2022-11-29T05:28:25.938Z,88.14
2022-11-29T05:31:13.405Z,88.17
2022-11-29T05:34:01.299Z,88.21
2022-11-29T05:36:39.573Z,88.23
2022-11-29T05:39:27.498Z,88.28
2022-11-29T05:42:21.284Z,88.33
2022-11-29T05:44:58.762Z,88.32
2022-11-29T05:47:36.692Z,88.35
2022-11-29T05:50:18.551Z,88.30
2022-11-29T05:52:57.664Z,88.33
2022-11-29T05:55:41.120Z,88.34
2022-11-29T05:58:29.952Z,88.37
2022-11-29T06:01:09.564Z,88.28
2022-11-29T06:03:50.708Z,88.34
2022-11-29T06:06:29.656Z,88.31
2022-11-29T06:09:07.498Z,88.32
2022-11-29T06:11:43.286Z,88.32
2022-11-29T06:14:27.872Z,88.33
2022-11-29T06:17:23.430Z,88.29
2022-11-29T06:20:13.847Z,88.32
2022-11-29T06:22:57.007Z,88.29
2022-11-29T06:25:46.578Z,88.27
2022-11-29T06:28:34.185Z,88.28
2022-11-29T06:31:12.333Z,88.34
2022-11-29T06:33:49.402Z,88.39
2022-11-29T06:36:22.958Z,88.39
2022-11-29T06:38:52.179Z,88.37
2022-11-29T06:41:23.479Z,88.36
2022-11-29T06:43:54.714Z,88.34
2022-11-29T06:46:44.999Z,88.35
2022-11-29T06:49:24.121Z,88.32
2022-11-29T06:52:07.068Z,88.32
2022-11-29T06:54:48.514Z,88.33
2022-11-29T06:57:24.603Z,88.35
2022-11-29T07:00:03.996Z,88.30
2022-11-29T07:02:46.349Z,88.31
2022-11-29T07:05:23.364Z,88.31
2022-11-29T07:07:58.008Z,88.29
2022-11-29T07:10:28.999Z,88.21
2022-11-29T07:13:01.536Z,88.25
2022-11-29T07:15:35.470Z,88.21
2022-11-29T07:18:17.545Z,88.16
2022-11-29T07:20:56.792Z,88.11
2022-11-29T07:23:33.369Z,88.13
2022-11-29T07:26:10.747Z,88.13
2022-11-29T07:28:50.957Z,87.95
2022-11-29T07:31:26.558Z,87.84
2022-11-29T07:34:04.391Z,87.76
2022-11-29T07:36:45.244Z,87.86
2022-11-29T07:39:22.809Z,87.81
2022-11-29T07:42:02.288Z,87.79
2022-11-29T07:44:44.441Z,87.73
2022-11-29T07:47:13.890Z,87.79
2022-11-29T07:49:48.032Z,87.68
2022-11-29T07:52:17.523Z,87.67
2022-11-29T07:54:47.006Z,87.59
2022-11-29T07:57:16.108Z,87.60
2022-11-29T07:59:45.446Z,87.54
2022-11-29T08:02:14.206Z,87.56
2022-11-29T08:04:46.012Z,87.25
2022-11-29T08:07:14.981Z,87.37
2022-11-29T08:09:46.573Z,87.36
2022-11-29T08:12:15.775Z,87.43
2022-11-29T08:14:47.023Z,87.41
2022-11-29T08:17:18.686Z,87.54
2022-11-29T08:19:47.774Z,87.20
2022-11-29T08:22:16.493Z,87.02
2022-11-29T08:24:45.954Z,86.91
2022-11-29T08:27:14.879Z,86.93
2022-11-29T08:29:44.123Z,87.12
2022-11-29T08:32:12.856Z,86.61
2022-11-29T08:34:41.612Z,86.62
2022-11-29T08:37:13.963Z,86.66
2022-11-29T08:39:45.458Z,86.58
2022-11-29T08:42:14.203Z,86.76
2022-11-29T08:44:43.774Z,86.62
2022-11-29T08:47:31.229Z,86.56
2022-11-29T08:50:02.596Z,86.64
2022-11-29T08:52:52.959Z,86.57
2022-11-29T08:55:23.703Z,86.37
2022-11-29T08:58:00.450Z,85.93
2022-11-29T09:00:29.327Z,85.96
2022-11-29T09:03:18.339Z,85.41
2022-11-29T09:05:47.082Z,85.65
2022-11-29T09:08:15.902Z,86.06
2022-11-29T09:10:45.479Z,85.38
2022-11-29T09:13:14.911Z,85.01
2022-11-29T09:15:46.068Z,85.54
2022-11-29T09:18:14.764Z,85.38
2022-11-29T09:20:53.285Z,85.57
2022-11-29T09:23:21.884Z,85.44
2022-11-29T09:25:53.673Z,85.56
2022-11-29T09:28:22.300Z,85.53
2022-11-29T09:30:50.984Z,85.23
2022-11-29T09:33:19.629Z,85.15
2022-11-29T09:35:48.561Z,85.70
2022-11-29T09:38:17.330Z,85.32
2022-11-29T09:40:52.715Z,84.81
2022-11-29T09:43:29.796Z,84.49
2022-11-29T09:46:12.511Z,85.04
2022-11-29T09:49:04.812Z,84.99
2022-11-29T09:51:44.317Z,85.28
2022-11-29T09:54:27.457Z,84.94
2022-11-29T09:56:57.162Z,84.26
2022-11-29T09:59:32.311Z,84.02
2022-11-29T10:02:14.856Z,84.26
2022-11-29T10:04:53.852Z,84.71
2022-11-29T10:07:28.028Z,85.05
2022-11-29T10:09:58.821Z,85.12
2022-11-29T10:12:36.804Z,84.42
2022-11-29T10:15:13.211Z,84.28
2022-11-29T10:17:50.711Z,84.68
2022-11-29T10:20:22.673Z,84.56
2022-11-29T10:22:55.643Z,84.85
2022-11-29T10:25:28.722Z,84.81
2022-11-29T10:27:57.612Z,83.68
2022-11-29T10:30:26.604Z,83.96
2022-11-29T10:33:00.100Z,84.11
2022-11-29T10:35:30.024Z,83.82
2022-11-29T10:40:56.235Z,83.65
2022-11-29T10:43:26.196Z,84.07
2022-11-29T10:45:55.778Z,83.42
2022-11-29T10:48:34.084Z,83.18
2022-11-29T10:51:16.015Z,84.51
2022-11-29T10:53:49.371Z,83.73
2022-11-29T10:56:23.644Z,83.32
2022-11-29T10:58:56.494Z,83.23
2022-11-29T11:01:28.597Z,83.55
2022-11-29T11:04:00.108Z,83.18
2022-11-29T11:06:46.594Z,83.42
2022-11-29T11:09:22.244Z,83.45
2022-11-29T11:11:55.699Z,82.90
2022-11-29T11:14:26.594Z,83.26
2022-11-29T11:16:56.209Z,83.64
2022-11-29T11:19:28.618Z,83.64
2022-11-29T11:21:59.267Z,82.38
2022-11-29T11:24:30.698Z,83.48
2022-11-29T11:27:00.659Z,82.92
2022-11-29T11:29:36.800Z,82.79
2022-11-29T11:32:07.627Z,83.08
2022-11-29T11:34:37.574Z,82.99
2022-11-29T11:37:19.578Z,82.92
2022-11-29T11:39:50.617Z,83.48
2022-11-29T11:42:37.938Z,83.48
2022-11-29T11:45:32.308Z,83.29
2022-11-29T11:48:08.123Z,83.63
2022-11-29T11:50:44.192Z,83.34
2022-11-29T11:53:23.589Z,83.31
2022-11-29T11:55:59.493Z,82.67
2022-11-29T11:58:34.331Z,82.97
2022-11-29T12:01:17.296Z,82.82
2022-11-29T12:03:53.039Z,83.19
2022-11-29T12:06:48.990Z,83.36
2022-11-29T12:09:40.426Z,83.48
2022-11-29T12:12:13.997Z,83.12
2022-11-29T12:14:53.576Z,83.40
2022-11-29T12:17:33.509Z,83.34
2022-11-29T12:20:22.449Z,83.56
2022-11-29T12:23:06.240Z,83.70
2022-11-29T12:25:48.757Z,83.60
2022-11-29T12:28:20.802Z,82.62
2022-11-29T12:30:58.795Z,83.27
2022-11-29T12:33:38.603Z,83.08
2022-11-29T12:36:20.820Z,83.22
2022-11-29T12:39:14.990Z,82.75
2022-11-29T12:41:54.261Z,82.64
2022-11-29T12:44:36.449Z,82.87
2022-11-29T12:50:29.820Z,82.58
2022-11-29T12:53:10.574Z,82.88
2022-11-29T12:55:53.439Z,82.79
2022-11-29T12:58:29.720Z,82.97
2022-11-29T13:01:10.754Z,82.99
2022-11-29T13:03:51.933Z,83.16
2022-11-29T13:06:29.943Z,83.43
2022-11-29T13:09:32.479Z,83.07
2022-11-29T13:12:06.536Z,83.15
2022-11-29T13:14:44.189Z,83.17
2022-11-29T13:17:27.797Z,83.59
2022-11-29T13:20:00.943Z,83.30
2022-11-29T13:22:41.272Z,83.60
2022-11-29T13:25:19.410Z,83.32
2022-11-29T13:27:54.304Z,83.72
2022-11-29T13:30:22.949Z,83.35
2022-11-29T13:32:57.707Z,83.79
2022-11-29T13:35:36.184Z,83.80
2022-11-29T13:38:13.527Z,83.31
2022-11-29T13:40:55.955Z,83.56
2022-11-29T13:43:33.704Z,83.76
2022-11-29T13:46:15.829Z,83.70
2022-11-29T13:48:50.369Z,83.83
2022-11-29T13:51:32.777Z,83.67
2022-11-29T13:54:04.491Z,83.71
2022-11-29T13:56:42.438Z,83.81
2022-11-29T13:59:18.459Z,83.72
2022-11-29T14:01:50.809Z,83.73
2022-11-29T14:04:27.895Z,83.68
2022-11-29T14:07:10.378Z,83.89
2022-11-29T14:09:48.930Z,84.10
2022-11-29T14:12:37.206Z,83.90
2022-11-29T14:15:23.667Z,83.99
2022-11-29T14:17:55.080Z,84.11
2022-11-29T14:21:00.397Z,84.05
2022-11-29T14:23:46.383Z,84.01
2022-11-29T14:26:33.040Z,84.12
2022-11-29T14:29:21.897Z,84.10
2022-11-29T14:31:53.164Z,84.12
2022-11-29T14:34:46.507Z,84.32
2022-11-29T14:37:50.197Z,84.05
2022-11-29T14:40:31.159Z,84.21
2022-11-29T14:43:02.356Z,84.27
2022-11-29T14:45:33.089Z,84.15
2022-11-29T14:48:02.244Z,84.08
2022-11-29T14:50:34.600Z,84.21
2022-11-29T14:53:06.369Z,84.15
2022-11-29T14:55:37.033Z,84.14
2022-11-29T14:58:16.827Z,84.11
2022-11-29T15:01:10.571Z,84.08
2022-11-29T15:03:48.594Z,83.93
2022-11-29T15:06:25.551Z,84.14
2022-11-29T15:09:01.663Z,83.80
2022-11-29T15:11:50.102Z,83.83
2022-11-29T15:14:31.296Z,84.00
2022-11-29T15:17:12.125Z,84.01
2022-11-29T15:20:02.708Z,84.22
2022-11-29T15:22:43.407Z,83.88
2022-11-29T15:25:14.410Z,83.77
2022-11-29T15:27:53.803Z,83.72
2022-11-29T15:30:30.387Z,83.89
2022-11-29T15:33:00.717Z,83.86
2022-11-29T15:35:31.397Z,84.03
2022-11-29T15:38:00.630Z,83.99
2022-11-29T15:40:34.839Z,84.08
2022-11-29T15:43:15.885Z,84.17
2022-11-29T15:45:48.669Z,84.10
2022-11-29T15:48:22.813Z,84.18
2022-11-29T15:50:54.973Z,84.21
2022-11-29T15:53:30.019Z,84.26
2022-11-29T15:56:00.824Z,84.05
2022-11-29T15:58:33.473Z,83.89
2022-11-29T16:01:03.417Z,83.89
2022-11-29T16:03:34.832Z,84.08
2022-11-29T16:06:15.581Z,84.05
2022-11-29T16:08:47.907Z,83.88
2022-11-29T16:11:21.032Z,83.99
2022-11-29T16:14:05.175Z,83.86
2022-11-29T16:16:37.388Z,83.97
2022-11-29T16:19:18.770Z,83.84
2022-11-29T16:22:04.182Z,83.86
2022-11-29T16:24:34.729Z,83.80
2022-11-29T16:27:04.935Z,83.89
2022-11-29T16:29:41.027Z,84.06
2022-11-29T16:32:27.735Z,84.13
2022-11-29T16:35:13.360Z,83.79
2022-11-29T16:37:44.843Z,83.87
2022-11-29T16:40:22.583Z,83.85
2022-11-29T16:43:20.140Z,83.93
2022-11-29T16:46:09.257Z,83.95
2022-11-29T16:48:38.085Z,83.86
2022-11-29T16:51:24.711Z,83.76
2022-11-29T16:53:55.418Z,84.06
2022-11-29T16:56:28.899Z,83.68
2022-11-29T16:59:25.033Z,83.66
2022-11-29T17:01:54.500Z,83.58
2022-11-29T17:04:24.668Z,83.87
2022-11-29T17:06:55.294Z,83.45
2022-11-29T17:09:26.133Z,83.53
2022-11-29T17:11:56.037Z,83.62
2022-11-29T17:14:24.679Z,83.59
2022-11-29T17:16:53.562Z,83.71
2022-11-29T17:19:23.286Z,83.64
2022-11-29T17:21:53.823Z,83.61
2022-11-29T17:24:24.219Z,83.64
2022-11-29T17:26:52.921Z,83.48
2022-11-29T17:29:24.487Z,83.69
2022-11-29T17:31:53.379Z,83.66
2022-11-29T17:34:22.268Z,83.64
2022-11-29T17:36:52.854Z,83.74
2022-11-29T17:39:22.218Z,83.79
2022-11-29T17:41:51.034Z,83.81
2022-11-29T17:44:20.063Z,83.82
2022-11-29T17:46:51.717Z,83.81
2022-11-29T17:49:20.476Z,83.94
2022-11-29T17:51:52.170Z,83.83
2022-11-29T17:54:22.147Z,83.99
2022-11-29T17:56:51.447Z,84.09
2022-11-29T17:59:20.554Z,84.05
2022-11-29T18:01:49.496Z,84.12
2022-11-29T18:04:20.077Z,84.16
2022-11-29T18:06:51.426Z,84.21
2022-11-29T18:09:22.363Z,84.12
2022-11-29T18:11:51.980Z,84.11
2022-11-29T18:14:24.843Z,84.04
2022-11-29T18:16:55.032Z,83.90
2022-11-29T18:19:31.263Z,83.92
2022-11-29T18:22:02.216Z,84.02
2022-11-29T18:24:30.848Z,83.94
2022-11-29T18:27:01.922Z,83.80
2022-11-29T18:29:38.952Z,83.76
2022-11-29T18:32:14.482Z,83.85
2022-11-29T18:34:47.550Z,83.88
2022-11-29T18:37:27.571Z,83.89
2022-11-29T18:40:07.944Z,83.88
2022-11-29T18:42:36.559Z,83.74
2022-11-29T18:45:09.890Z,83.75
2022-11-29T18:47:38.527Z,83.96
2022-11-29T18:50:16.029Z,83.84
2022-11-29T18:52:46.139Z,83.76
2022-11-29T18:55:14.955Z,83.80
2022-11-29T18:57:43.641Z,83.66
2022-11-29T19:00:14.947Z,83.67
2022-11-29T19:02:43.707Z,83.75
2022-11-29T19:05:13.166Z,83.78
2022-11-29T19:07:41.896Z,83.80
2022-11-29T19:10:12.108Z,83.79
2022-11-29T19:12:40.972Z,83.77
2022-11-29T19:15:11.460Z,83.88
2022-11-29T19:17:43.162Z,83.97
2022-11-29T19:20:16.443Z,83.87
2022-11-29T19:22:46.218Z,83.98
2022-11-29T19:25:15.228Z,83.87
2022-11-29T19:27:46.691Z,83.77
2022-11-29T19:30:19.063Z,83.86
2022-11-29T19:32:48.464Z,84.00
2022-11-29T19:35:17.367Z,83.82
2022-11-29T19:37:48.785Z,83.83
2022-11-29T19:40:17.461Z,83.87
2022-11-29T19:42:48.605Z,83.89
2022-11-29T19:45:18.156Z,83.90
2022-11-29T19:47:49.597Z,84.01
2022-11-29T19:50:18.346Z,83.67
2022-11-29T19:52:48.515Z,83.90
2022-11-29T19:55:17.163Z,83.93
2022-11-29T19:57:46.526Z,83.73
2022-11-29T20:00:17.461Z,83.71
2022-11-29T20:02:46.899Z,83.70
2022-11-29T20:05:15.833Z,83.70
2022-11-29T20:07:44.923Z,83.87
2022-11-29T20:10:15.219Z,83.84
2022-11-29T20:12:43.885Z,83.74
2022-11-29T20:15:12.642Z,83.74
2022-11-29T20:17:41.284Z,83.61
2022-11-29T20:20:15.695Z,83.65
2022-11-29T20:22:44.454Z,83.85
2022-11-29T20:25:13.016Z,83.68
2022-11-29T20:27:41.555Z,83.67
2022-11-29T20:30:14.778Z,83.77
2022-11-29T20:32:44.430Z,83.62
2022-11-29T20:35:16.676Z,83.70
2022-11-29T20:38:02.217Z,83.46
2022-11-29T20:40:39.647Z,83.73
2022-11-29T20:43:19.855Z,83.16
2022-11-29T20:45:51.523Z,83.19
2022-11-29T20:48:22.663Z,83.40
2022-11-29T20:50:57.533Z,83.17
2022-11-29T20:53:38.451Z,83.22
2022-11-29T20:56:09.592Z,83.43
2022-11-29T20:58:39.318Z,83.33
2022-11-29T21:01:08.156Z,83.46
2022-11-29T21:03:37.273Z,83.26
2022-11-29T21:06:07.037Z,83.01
2022-11-29T21:08:39.417Z,83.22
2022-11-29T21:11:10.432Z,83.33
2022-11-29T21:13:45.109Z,83.14
2022-11-29T21:16:17.619Z,83.04
2022-11-29T21:18:49.293Z,82.93
2022-11-29T21:21:24.637Z,82.45
2022-11-29T21:24:05.098Z,83.00
2022-11-29T21:26:42.021Z,82.97
2022-11-29T21:29:18.041Z,83.14
2022-11-29T21:31:50.783Z,83.35
2022-11-29T21:34:19.865Z,83.03
2022-11-29T21:36:54.803Z,83.03
2022-11-29T21:39:31.919Z,83.00
2022-11-29T21:42:00.920Z,82.86
2022-11-29T21:44:29.989Z,82.70
2022-11-29T21:46:58.640Z,82.67
2022-11-29T21:49:28.001Z,82.80
2022-11-29T21:51:57.191Z,82.67
2022-11-29T21:54:25.924Z,82.69
2022-11-29T21:56:54.515Z,82.77
2022-11-29T21:59:24.413Z,82.84
2022-11-29T22:01:54.749Z,82.88
2022-11-29T22:04:24.574Z,82.92
2022-11-29T22:06:55.210Z,83.18
2022-11-29T22:09:26.460Z,83.22
2022-11-29T22:11:55.002Z,83.10
2022-11-29T22:14:23.845Z,83.01
2022-11-29T22:16:54.305Z,82.71
2022-11-29T22:19:24.737Z,82.88
2022-11-29T22:21:56.377Z,82.82
2022-11-29T22:24:27.702Z,82.50
2022-11-29T22:26:57.040Z,82.72
2022-11-29T22:29:25.642Z,82.86
2022-11-29T22:31:55.948Z,82.75
2022-11-29T22:34:26.134Z,82.67
2022-11-29T22:36:54.994Z,82.62
2022-11-29T22:39:24.532Z,82.88
2022-11-29T22:41:54.948Z,82.95
2022-11-29T22:44:24.374Z,82.89
2022-11-29T22:46:53.335Z,83.15
2022-11-29T22:49:21.973Z,82.90
2022-11-29T22:51:51.690Z,82.84
2022-11-29T22:54:20.376Z,82.97
2022-11-29T22:56:51.825Z,83.00
2022-11-29T22:59:20.408Z,82.90
2022-11-29T23:01:51.240Z,82.96
2022-11-29T23:04:22.304Z,82.93
2022-11-29T23:06:56.192Z,82.93
2022-11-29T23:09:28.602Z,82.86
2022-11-29T23:11:58.046Z,82.93
2022-11-29T23:14:26.635Z,82.75
2022-11-29T23:16:58.172Z,82.62
2022-11-29T23:19:26.856Z,82.85
2022-11-29T23:21:56.498Z,82.88
2022-11-29T23:24:25.033Z,82.93
2022-11-29T23:27:00.588Z,83.02
2022-11-29T23:29:29.169Z,82.91
2022-11-29T23:31:57.855Z,83.23
2022-11-29T23:34:26.982Z,83.13
2022-11-29T23:36:55.601Z,82.99
2022-11-29T23:39:24.120Z,83.09
2022-11-29T23:41:52.661Z,82.92
2022-11-29T23:44:24.489Z,82.97
2022-11-29T23:46:55.494Z,82.97
2022-11-29T23:49:24.102Z,83.00
2022-11-29T23:51:53.938Z,82.69
2022-11-29T23:54:23.604Z,83.03
2022-11-29T23:56:52.146Z,83.03
2022-11-29T23:59:24.010Z,82.82
